Impacts TAF Board INFO
FOR SITUATIONAL AWARENESS. NOT TO BE USED FOR FLIGHT PLANNING PURPOSES.
IDs:

KDEN - Denver Intl, CO, US

Issued at 2340 UTC 16 Dec 2017
Updated at 0029 UTC 17 Dec 2017
Potential Impact None Slight Moderate High
Time2353Z 17/01Z 17/02Z 17/03Z 17/04Z 17/05Z 17/06Z 17/07Z 17/08Z 17/09Z 17/10Z 17/11Z 17/12Z 17/13Z>>
Type OBS PRVL PRVL PRVL PRVL PRVL PRVL PRVL PRVL PRVL
  [PRB30]  
PRVL
  [PRB30]  
PRVL
  [PRB30]  
PRVL
  [PRB30]  
PRVL
VIS 10 >6 >6 >6 >6 >6 >6 >6 >6 4
  [1]  
4
  [1]  
4
  [1]  
4
  [1]  
4
CIG 220 220 140 140 140 140 60 60 14 5
  [3]  
5
  [3]  
5
  [3]  
5
  [3]  
5
Cover BKN BKN BKN BKN BKN BKN BKN BKN BKN OVC
  [OVC]  
OVC
  [OVC]  
OVC
  [OVC]  
OVC
  [OVC]  
OVC
FltCat VFR VFR VFR VFR VFR VFR VFR VFR MVFR IFR
  [LIFR]  
IFR
  [LIFR]  
IFR
  [LIFR]  
IFR
  [LIFR]  
IFR
WX -- -- -- -- -- -- -- -- -- BR
  [-FZDZ BR]  
BR
  [-FZDZ BR]  
BR
  [-FZDZ BR]  
BR
  [-FZDZ BR]  
BR
WDir 70 70 60 60 60 60 80 80 90 110
[110]
110
[110]
110
[110]
110
[110]
110
WSpd 9 10 8 8 8 8 7 7 7 6
  [6]  
6
  [6]  
6
  [6]  
6
  [6]  
6
WGst -- -- -- -- -- -- -- -- -- --
  [--]  
--
  [--]  
--
  [--]  
--
  [--]  
--

Raw TAF
KDEN 162340Z 1700/1806 07010KT P6SM SCT140 BKN220
  FM170200 06008KT P6SM FEW080 BKN140 BKN200
  FM170600 08007KT P6SM SCT015 BKN060
  FM170800 09007KT P6SM SCT008 BKN014
  FM170900 11006KT 4SM BR BKN005 OVC008
  PROB30 1709/1713 1SM -FZDZ BR OVC003
  FM171400 16007KT P6SM SCT008 OVC014
  TEMPO 1714/1716 BKN008
  FM171900 12007KT P6SM SCT025 BKN100
  FM180100 20008KT P6SM FEW120 SCT220


Raw METAR
KDEN 162353Z 07009KT 10SM SCT140 BKN220 02/M10 A2982 RMK AO2 SLP092 T00221100 10106 20017 53015 $
KDEN 162253Z 07008KT 10SM SCT140 BKN220 07/M11 A2981 RMK AO2 SLP072 T00671106 $
KDEN 162153Z 07010KT 10SM FEW100 FEW140 BKN220 09/M11 A2979 RMK AO2 SLP066 T00891111 $

METAR Board
Radar Display
Forecast Discussion

FOR SITUATIONAL AWARENESS. NOT TO BE USED FOR FLIGHT PLANNING PURPOSES.